sensor_id;sensor_type;location;lat;lon;timestamp;temperature;humidity
20833;DHT22;56075;51.264;7.150;2023-03-14T00:02:08;13.00;99.90
20833;DHT22;56075;51.264;7.150;2023-03-14T00:04:39;11.50;99.90
20833;DHT22;56075;51.264;7.150;2023-03-14T00:07:12;11.50;99.90
20833;DHT22;56075;51.264;7.150;2023-03-14T00:09:44;11.60;99.90
20833;DHT22;56075;51.264;7.150;2023-03-14T00:12:15;11.60;99.90
20833;DHT22;56075;51.264;7.150;2023-03-14T00:14:46;11.60;99.90
20833;DHT22;56075;51.264;7.150;2023-03-14T00:17:17;11.50;99.90
20833;DHT22;56075;51.264;7.150;2023-03-14T00:19:48;11.60;99.90
20833;DHT22;56075;51.264;7.150;2023-03-14T00:22:23;11.40;99.90
20833;DHT22;56075;51.264;7.150;2023-03-14T00:24:54;11.40;99.90
20833;DHT22;56075;51.264;7.150;2023-03-14T00:27:25;11.40;99.90
20833;DHT22;56075;51.264;7.150;2023-03-14T00:29:57;11.40;99.90
20833;DHT22;56075;51.264;7.150;2023-03-14T00:32:28;12.00;99.90
20833;DHT22;56075;51.264;7.150;2023-03-14T00:35:00;11.40;99.90
20833;DHT22;56075;51.264;7.150;2023-03-14T00:37:34;11.40;99.90
20833;DHT22;56075;51.264;7.150;2023-03-14T00:40:06;12.80;99.90
20833;DHT22;56075;51.264;7.150;2023-03-14T00:42:38;11.50;99.90
20833;DHT22;56075;51.264;7.150;2023-03-14T00:45:10;11.70;99.90
20833;DHT22;56075;51.264;7.150;2023-03-14T00:47:41;11.50;99.90
20833;DHT22;56075;51.264;7.150;2023-03-14T00:50:16;12.70;99.90
20833;DHT22;56075;51.264;7.150;2023-03-14T00:52:47;11.60;99.90
20833;DHT22;56075;51.264;7.150;2023-03-14T00:55:19;12.90;99.90
20833;DHT22;56075;51.264;7.150;2023-03-14T00:57:51;11.70;99.90
20833;DHT22;56075;51.264;7.150;2023-03-14T01:00:22;11.60;99.90
20833;DHT22;56075;51.264;7.150;2023-03-14T01:02:54;11.70;99.90
20833;DHT22;56075;51.264;7.150;2023-03-14T01:05:26;12.00;99.90
20833;DHT22;56075;51.264;7.150;2023-03-14T01:07:58;11.30;99.90
20833;DHT22;56075;51.264;7.150;2023-03-14T01:10:30;11.30;99.90
20833;DHT22;56075;51.264;7.150;2023-03-14T01:13:02;10.80;99.90
20833;DHT22;56075;51.264;7.150;2023-03-14T01:15:36;10.70;99.90
20833;DHT22;56075;51.264;7.150;2023-03-14T01:18:07;10.40;99.90
20833;DHT22;56075;51.264;7.150;2023-03-14T01:20:38;10.10;99.90
20833;DHT22;56075;51.264;7.150;2023-03-14T01:23:10;9.90;99.90
20833;DHT22;56075;51.264;7.150;2023-03-14T01:25:41;9.80;99.90
20833;DHT22;56075;51.264;7.150;2023-03-14T01:28:13;9.50;99.90
20833;DHT22;56075;51.264;7.150;2023-03-14T01:30:45;9.30;99.90
20833;DHT22;56075;51.264;7.150;2023-03-14T01:33:17;9.40;99.90
20833;DHT22;56075;51.264;7.150;2023-03-14T01:35:59;9.20;99.90
20833;DHT22;56075;51.264;7.150;2023-03-14T01:38:34;9.10;99.90
20833;DHT22;56075;51.264;7.150;2023-03-14T01:41:07;9.00;99.90
20833;DHT22;56075;51.264;7.150;2023-03-14T01:51:52;8.90;99.90
20833;DHT22;56075;51.264;7.150;2023-03-14T01:54:44;8.90;99.90
20833;DHT22;56075;51.264;7.150;2023-03-14T02:03:02;9.00;99.90
20833;DHT22;56075;51.264;7.150;2023-03-14T02:05:39;8.90;99.90
20833;DHT22;56075;51.264;7.150;2023-03-14T02:08:18;9.10;99.90
20833;DHT22;56075;51.264;7.150;2023-03-14T02:14:10;9.00;99.90
20833;DHT22;56075;51.264;7.150;2023-03-14T02:17:18;9.00;99.90
20833;DHT22;56075;51.264;7.150;2023-03-14T02:20:25;9.20;99.90
20833;DHT22;56075;51.264;7.150;2023-03-14T02:33:19;9.30;99.90
20833;DHT22;56075;51.264;7.150;2023-03-14T02:38:35;9.20;99.90
20833;DHT22;56075;51.264;7.150;2023-03-14T02:43:48;9.00;99.90
20833;DHT22;56075;51.264;7.150;2023-03-14T02:49:03;9.30;99.90
20833;DHT22;56075;51.264;7.150;2023-03-14T02:51:36;9.30;99.90
20833;DHT22;56075;51.264;7.150;2023-03-14T02:54:10;9.20;99.90
20833;DHT22;56075;51.264;7.150;2023-03-14T02:56:41;9.40;99.90
20833;DHT22;56075;51.264;7.150;2023-03-14T02:59:16;9.20;99.90
20833;DHT22;56075;51.264;7.150;2023-03-14T03:01:53;9.30;99.90
20833;DHT22;56075;51.264;7.150;2023-03-14T03:04:24;9.30;99.90
20833;DHT22;56075;51.264;7.150;2023-03-14T03:06:55;9.50;99.90
20833;DHT22;56075;51.264;7.150;2023-03-14T03:09:26;9.20;99.90
20833;DHT22;56075;51.264;7.150;2023-03-14T03:14:31;9.40;99.90
20833;DHT22;56075;51.264;7.150;2023-03-14T03:17:06;9.40;99.90
20833;DHT22;56075;51.264;7.150;2023-03-14T03:19:37;9.50;99.90
20833;DHT22;56075;51.264;7.150;2023-03-14T03:22:08;9.40;99.90
20833;DHT22;56075;51.264;7.150;2023-03-14T03:27:11;9.40;99.90
20833;DHT22;56075;51.264;7.150;2023-03-14T03:29:42;9.40;99.90
20833;DHT22;56075;51.264;7.150;2023-03-14T03:32:13;9.50;99.90
20833;DHT22;56075;51.264;7.150;2023-03-14T03:34:44;9.50;99.90
20833;DHT22;56075;51.264;7.150;2023-03-14T03:37:15;9.60;99.90
20833;DHT22;56075;51.264;7.150;2023-03-14T03:39:47;9.50;99.90
20833;DHT22;56075;51.264;7.150;2023-03-14T03:47:23;9.30;99.90
20833;DHT22;56075;51.264;7.150;2023-03-14T03:49:55;9.20;99.90
20833;DHT22;56075;51.264;7.150;2023-03-14T03:54:57;9.10;99.90
20833;DHT22;56075;51.264;7.150;2023-03-14T04:00:01;9.10;99.90
20833;DHT22;56075;51.264;7.150;2023-03-14T04:08:00;8.90;99.90
20833;DHT22;56075;51.264;7.150;2023-03-14T04:10:36;8.60;99.90
20833;DHT22;56075;51.264;7.150;2023-03-14T04:13:21;8.60;99.90
20833;DHT22;56075;51.264;7.150;2023-03-14T04:15:56;8.70;99.90
20833;DHT22;56075;51.264;7.150;2023-03-14T04:21:02;8.50;99.90
20833;DHT22;56075;51.264;7.150;2023-03-14T04:41:44;8.70;99.90
20833;DHT22;56075;51.264;7.150;2023-03-14T04:46:47;8.60;99.90
20833;DHT22;56075;51.264;7.150;2023-03-14T05:04:54;8.80;99.90
20833;DHT22;56075;51.264;7.150;2023-03-14T05:07:44;8.70;99.90
20833;DHT22;56075;51.264;7.150;2023-03-14T05:21:49;8.80;99.90
20833;DHT22;56075;51.264;7.150;2023-03-14T05:24:38;8.90;99.90
20833;DHT22;56075;51.264;7.150;2023-03-14T05:27:21;8.90;99.90
20833;DHT22;56075;51.264;7.150;2023-03-14T05:32:39;8.90;99.90
20833;DHT22;56075;51.264;7.150;2023-03-14T05:52:07;8.80;99.90
20833;DHT22;56075;51.264;7.150;2023-03-14T06:00:29;8.70;99.90
20833;DHT22;56075;51.264;7.150;2023-03-14T06:05:50;8.90;99.90
20833;DHT22;56075;51.264;7.150;2023-03-14T06:08:22;8.80;99.90
20833;DHT22;56075;51.264;7.150;2023-03-14T06:13:32;9.00;99.90
20833;DHT22;56075;51.264;7.150;2023-03-14T06:16:03;9.10;99.90
20833;DHT22;56075;51.264;7.150;2023-03-14T06:18:35;9.00;99.90
20833;DHT22;56075;51.264;7.150;2023-03-14T06:23:40;9.00;99.90
20833;DHT22;56075;51.264;7.150;2023-03-14T06:26:11;8.90;99.90
20833;DHT22;56075;51.264;7.150;2023-03-14T06:28:43;9.00;99.90
20833;DHT22;56075;51.264;7.150;2023-03-14T06:31:15;9.00;99.90
20833;DHT22;56075;51.264;7.150;2023-03-14T06:33:56;8.90;99.90
20833;DHT22;56075;51.264;7.150;2023-03-14T06:36:31;8.80;99.90
20833;DHT22;56075;51.264;7.150;2023-03-14T06:39:03;8.90;99.90
20833;DHT22;56075;51.264;7.150;2023-03-14T06:41:36;9.10;99.90
20833;DHT22;56075;51.264;7.150;2023-03-14T06:46:39;9.20;99.90
20833;DHT22;56075;51.264;7.150;2023-03-14T06:49:10;9.10;99.90
20833;DHT22;56075;51.264;7.150;2023-03-14T06:51:41;9.10;99.90
20833;DHT22;56075;51.264;7.150;2023-03-14T06:54:14;8.90;99.90
20833;DHT22;56075;51.264;7.150;2023-03-14T06:56:46;9.30;99.90
20833;DHT22;56075;51.264;7.150;2023-03-14T06:59:18;9.00;99.90
20833;DHT22;56075;51.264;7.150;2023-03-14T07:04:23;8.90;99.90
20833;DHT22;56075;51.264;7.150;2023-03-14T07:06:54;8.70;99.90
20833;DHT22;56075;51.264;7.150;2023-03-14T07:12:03;8.90;99.90
20833;DHT22;56075;51.264;7.150;2023-03-14T07:14:35;9.00;99.90
20833;DHT22;56075;51.264;7.150;2023-03-14T07:27:13;9.20;99.90
20833;DHT22;56075;51.264;7.150;2023-03-14T07:29:44;9.00;99.90
20833;DHT22;56075;51.264;7.150;2023-03-14T07:34:48;9.20;99.90
20833;DHT22;56075;51.264;7.150;2023-03-14T07:37:19;9.00;99.90
20833;DHT22;56075;51.264;7.150;2023-03-14T07:39:50;9.20;99.90
20833;DHT22;56075;51.264;7.150;2023-03-14T07:52:59;9.20;99.90
20833;DHT22;56075;51.264;7.150;2023-03-14T08:00:34;9.30;99.90
20833;DHT22;56075;51.264;7.150;2023-03-14T08:05:37;9.30;99.90
20833;DHT22;56075;51.264;7.150;2023-03-14T08:13:11;9.10;99.90
20833;DHT22;56075;51.264;7.150;2023-03-14T08:18:14;9.00;99.90
20833;DHT22;56075;51.264;7.150;2023-03-14T08:25:49;9.30;99.90
20833;DHT22;56075;51.264;7.150;2023-03-14T08:28:21;9.50;99.90
20833;DHT22;56075;51.264;7.150;2023-03-14T08:30:55;9.30;99.90
20833;DHT22;56075;51.264;7.150;2023-03-14T08:33:27;9.40;99.90
20833;DHT22;56075;51.264;7.150;2023-03-14T08:38:31;9.50;99.90
20833;DHT22;56075;51.264;7.150;2023-03-14T08:41:03;9.40;99.90
20833;DHT22;56075;51.264;7.150;2023-03-14T08:43:35;9.60;99.90
20833;DHT22;56075;51.264;7.150;2023-03-14T08:46:06;9.70;99.90
20833;DHT22;56075;51.264;7.150;2023-03-14T08:48:37;9.70;99.90
20833;DHT22;56075;51.264;7.150;2023-03-14T08:51:13;9.60;99.90
20833;DHT22;56075;51.264;7.150;2023-03-14T08:53:45;9.60;99.90
20833;DHT22;56075;51.264;7.150;2023-03-14T08:56:16;9.60;99.90
20833;DHT22;56075;51.264;7.150;2023-03-14T08:58:47;9.70;99.90
20833;DHT22;56075;51.264;7.150;2023-03-14T09:01:18;9.60;99.90
20833;DHT22;56075;51.264;7.150;2023-03-14T09:03:50;9.60;99.90
20833;DHT22;56075;51.264;7.150;2023-03-14T09:06:21;9.80;99.90
20833;DHT22;56075;51.264;7.150;2023-03-14T09:11:24;9.80;99.90
20833;DHT22;56075;51.264;7.150;2023-03-14T09:13:55;9.80;99.90
20833;DHT22;56075;51.264;7.150;2023-03-14T09:16:26;9.80;99.90
20833;DHT22;56075;51.264;7.150;2023-03-14T09:18:58;9.80;99.90
20833;DHT22;56075;51.264;7.150;2023-03-14T09:21:30;9.90;99.90
20833;DHT22;56075;51.264;7.150;2023-03-14T09:24:02;10.20;99.90
20833;DHT22;56075;51.264;7.150;2023-03-14T09:26:33;9.90;99.90
20833;DHT22;56075;51.264;7.150;2023-03-14T09:29:04;9.80;99.90
20833;DHT22;56075;51.264;7.150;2023-03-14T09:31:35;9.70;99.90
20833;DHT22;56075;51.264;7.150;2023-03-14T09:34:06;9.90;99.90
20833;DHT22;56075;51.264;7.150;2023-03-14T09:36:37;9.70;99.90
20833;DHT22;56075;51.264;7.150;2023-03-14T09:39:20;9.80;99.90
20833;DHT22;56075;51.264;7.150;2023-03-14T09:41:57;9.80;99.90
20833;DHT22;56075;51.264;7.150;2023-03-14T09:44:34;9.80;99.90
20833;DHT22;56075;51.264;7.150;2023-03-14T09:47:09;9.70;99.90
20833;DHT22;56075;51.264;7.150;2023-03-14T09:49:42;9.60;99.90
20833;DHT22;56075;51.264;7.150;2023-03-14T09:52:35;9.30;99.90
20833;DHT22;56075;51.264;7.150;2023-03-14T09:55:28;8.90;99.90
20833;DHT22;56075;51.264;7.150;2023-03-14T09:58:03;8.70;99.90
20833;DHT22;56075;51.264;7.150;2023-03-14T10:00:40;8.70;99.90
20833;DHT22;56075;51.264;7.150;2023-03-14T10:05:43;8.30;99.90
20833;DHT22;56075;51.264;7.150;2023-03-14T10:08:14;8.10;99.90
20833;DHT22;56075;51.264;7.150;2023-03-14T10:10:45;8.10;99.90
20833;DHT22;56075;51.264;7.150;2023-03-14T10:16:02;8.10;99.90
20833;DHT22;56075;51.264;7.150;2023-03-14T10:18:34;8.10;99.90
20833;DHT22;56075;51.264;7.150;2023-03-14T10:23:40;7.80;99.90
20833;DHT22;56075;51.264;7.150;2023-03-14T10:26:29;8.10;99.90
20833;DHT22;56075;51.264;7.150;2023-03-14T10:29:10;8.00;99.90
20833;DHT22;56075;51.264;7.150;2023-03-14T10:37:26;8.00;99.90
20833;DHT22;56075;51.264;7.150;2023-03-14T10:40:00;7.90;99.90
20833;DHT22;56075;51.264;7.150;2023-03-14T10:42:41;8.00;99.90
20833;DHT22;56075;51.264;7.150;2023-03-14T10:45:33;7.80;99.90
20833;DHT22;56075;51.264;7.150;2023-03-14T10:56:02;7.80;99.90
20833;DHT22;56075;51.264;7.150;2023-03-14T11:12:20;7.70;99.90
20833;DHT22;56075;51.264;7.150;2023-03-14T11:41:24;7.30;99.90
20833;DHT22;56075;51.264;7.150;2023-03-14T11:46:39;7.30;99.90
20833;DHT22;56075;51.264;7.150;2023-03-14T11:51:52;7.10;99.90
20833;DHT22;56075;51.264;7.150;2023-03-14T12:13:19;6.50;99.90
20833;DHT22;56075;51.264;7.150;2023-03-14T12:15:59;6.90;99.90
20833;DHT22;56075;51.264;7.150;2023-03-14T12:18:34;6.90;99.90
20833;DHT22;56075;51.264;7.150;2023-03-14T12:49:52;7.40;99.90
20833;DHT22;56075;51.264;7.150;2023-03-14T12:52:40;7.50;99.90
20833;DHT22;56075;51.264;7.150;2023-03-14T12:55:21;7.70;99.90
20833;DHT22;56075;51.264;7.150;2023-03-14T12:58:17;7.80;99.90
20833;DHT22;56075;51.264;7.150;2023-03-14T13:00:59;7.80;99.90
20833;DHT22;56075;51.264;7.150;2023-03-14T13:09:35;7.80;99.90
20833;DHT22;56075;51.264;7.150;2023-03-14T13:12:11;7.70;99.90
20833;DHT22;56075;51.264;7.150;2023-03-14T13:19:56;7.40;99.90
20833;DHT22;56075;51.264;7.150;2023-03-14T13:37:59;6.50;99.90
20833;DHT22;56075;51.264;7.150;2023-03-14T13:45:56;6.90;99.90
20833;DHT22;56075;51.264;7.150;2023-03-14T13:48:29;6.90;99.90
20833;DHT22;56075;51.264;7.150;2023-03-14T13:51:07;6.70;99.90
20833;DHT22;56075;51.264;7.150;2023-03-14T13:53:48;6.50;99.90
20833;DHT22;56075;51.264;7.150;2023-03-14T13:56:24;6.50;99.90
20833;DHT22;56075;51.264;7.150;2023-03-14T14:04:15;6.20;99.90
20833;DHT22;56075;51.264;7.150;2023-03-14T14:14:49;7.20;99.90
20833;DHT22;56075;51.264;7.150;2023-03-14T14:17:36;7.60;99.90
20833;DHT22;56075;51.264;7.150;2023-03-14T14:22:50;8.70;99.90
20833;DHT22;56075;51.264;7.150;2023-03-14T14:25:22;9.20;99.90
20833;DHT22;56075;51.264;7.150;2023-03-14T14:27:53;9.80;99.90
20833;DHT22;56075;51.264;7.150;2023-03-14T14:30:28;10.10;99.90
20833;DHT22;56075;51.264;7.150;2023-03-14T14:33:20;10.60;99.90
20833;DHT22;56075;51.264;7.150;2023-03-14T14:35:56;10.90;99.90
20833;DHT22;56075;51.264;7.150;2023-03-14T14:38:28;10.90;99.90
20833;DHT22;56075;51.264;7.150;2023-03-14T14:41:02;10.90;99.90
20833;DHT22;56075;51.264;7.150;2023-03-14T14:43:36;10.90;99.90
20833;DHT22;56075;51.264;7.150;2023-03-14T14:46:13;10.60;99.90
20833;DHT22;56075;51.264;7.150;2023-03-14T14:48:47;10.60;99.90
20833;DHT22;56075;51.264;7.150;2023-03-14T14:51:24;10.30;99.90
20833;DHT22;56075;51.264;7.150;2023-03-14T14:54:12;10.00;99.90
20833;DHT22;56075;51.264;7.150;2023-03-14T14:56:49;9.80;99.90
20833;DHT22;56075;51.264;7.150;2023-03-14T14:59:27;9.90;99.90
20833;DHT22;56075;51.264;7.150;2023-03-14T15:02:02;9.80;99.90
20833;DHT22;56075;51.264;7.150;2023-03-14T15:04:33;9.80;99.90
20833;DHT22;56075;51.264;7.150;2023-03-14T15:07:04;9.70;99.90
20833;DHT22;56075;51.264;7.150;2023-03-14T15:14:38;9.80;99.90
20833;DHT22;56075;51.264;7.150;2023-03-14T15:19:42;9.90;99.90
20833;DHT22;56075;51.264;7.150;2023-03-14T15:22:14;9.70;99.90
20833;DHT22;56075;51.264;7.150;2023-03-14T15:24:45;9.50;99.90
20833;DHT22;56075;51.264;7.150;2023-03-14T15:27:17;9.50;99.90
20833;DHT22;56075;51.264;7.150;2023-03-14T15:29:49;9.20;99.90
20833;DHT22;56075;51.264;7.150;2023-03-14T15:32:20;9.10;99.90
20833;DHT22;56075;51.264;7.150;2023-03-14T15:34:51;9.10;99.90
20833;DHT22;56075;51.264;7.150;2023-03-14T15:37:22;10.30;99.90
20833;DHT22;56075;51.264;7.150;2023-03-14T15:39:53;9.70;99.90
20833;DHT22;56075;51.264;7.150;2023-03-14T15:42:28;9.70;99.90
20833;DHT22;56075;51.264;7.150;2023-03-14T15:45:00;9.50;99.90
20833;DHT22;56075;51.264;7.150;2023-03-14T15:47:31;9.60;99.90
20833;DHT22;56075;51.264;7.150;2023-03-14T15:50:04;9.30;99.90
20833;DHT22;56075;51.264;7.150;2023-03-14T15:52:35;9.20;99.90
20833;DHT22;56075;51.264;7.150;2023-03-14T15:55:06;8.90;99.90
20833;DHT22;56075;51.264;7.150;2023-03-14T15:57:38;9.00;99.90
20833;DHT22;56075;51.264;7.150;2023-03-14T16:00:12;8.70;99.90
20833;DHT22;56075;51.264;7.150;2023-03-14T16:02:45;8.50;99.90
20833;DHT22;56075;51.264;7.150;2023-03-14T16:05:16;8.30;99.90
20833;DHT22;56075;51.264;7.150;2023-03-14T16:07:49;8.00;99.90
20833;DHT22;56075;51.264;7.150;2023-03-14T16:10:20;7.70;99.90
20833;DHT22;56075;51.264;7.150;2023-03-14T16:12:52;7.90;99.90
20833;DHT22;56075;51.264;7.150;2023-03-14T16:17:56;7.70;99.90
20833;DHT22;56075;51.264;7.150;2023-03-14T16:20:27;7.60;99.90
20833;DHT22;56075;51.264;7.150;2023-03-14T16:22:58;7.50;99.90
20833;DHT22;56075;51.264;7.150;2023-03-14T16:25:29;7.50;99.90
20833;DHT22;56075;51.264;7.150;2023-03-14T16:28:00;7.40;99.90
20833;DHT22;56075;51.264;7.150;2023-03-14T16:30:32;7.40;99.90
20833;DHT22;56075;51.264;7.150;2023-03-14T16:33:03;7.30;99.90
20833;DHT22;56075;51.264;7.150;2023-03-14T16:35:38;7.30;99.90
20833;DHT22;56075;51.264;7.150;2023-03-14T16:38:10;7.40;99.90
20833;DHT22;56075;51.264;7.150;2023-03-14T16:40:41;7.30;99.90
20833;DHT22;56075;51.264;7.150;2023-03-14T16:43:12;7.40;99.90
20833;DHT22;56075;51.264;7.150;2023-03-14T16:45:43;7.40;99.90
20833;DHT22;56075;51.264;7.150;2023-03-14T16:48:15;7.20;99.90
20833;DHT22;56075;51.264;7.150;2023-03-14T16:50:49;7.50;99.90
20833;DHT22;56075;51.264;7.150;2023-03-14T16:53:21;7.40;99.90
20833;DHT22;56075;51.264;7.150;2023-03-14T16:55:53;7.20;99.90
20833;DHT22;56075;51.264;7.150;2023-03-14T16:58:24;7.20;99.90
20833;DHT22;56075;51.264;7.150;2023-03-14T17:00:56;7.00;99.90
20833;DHT22;56075;51.264;7.150;2023-03-14T17:03:27;7.30;99.90
20833;DHT22;56075;51.264;7.150;2023-03-14T17:08:30;7.00;99.90
20833;DHT22;56075;51.264;7.150;2023-03-14T19:25:13;5.30;99.90
20833;DHT22;56075;51.264;7.150;2023-03-14T19:35:20;5.40;99.90
20833;DHT22;56075;51.264;7.150;2023-03-14T21:47:09;3.40;99.90
20833;DHT22;56075;51.264;7.150;2023-03-14T21:49:40;3.40;99.90
20833;DHT22;56075;51.264;7.150;2023-03-14T21:54:44;3.60;99.90
